sensor_id;sensor_type;location;lat;lon;timestamp;P1;durP1;ratioP1;P2;durP2;ratioP2
43088;SDS011;28709;52.030;5.652;2022-12-11T00:00:47;115.07;;;28.92;;
43088;SDS011;28709;52.030;5.652;2022-12-11T00:03:14;106.47;;;26.13;;
43088;SDS011;28709;52.030;5.652;2022-12-11T00:05:41;102.22;;;22.88;;
43088;SDS011;28709;52.030;5.652;2022-12-11T00:08:07;87.65;;;23.40;;
43088;SDS011;28709;52.030;5.652;2022-12-11T00:10:32;77.40;;;20.45;;
43088;SDS011;28709;52.030;5.652;2022-12-11T00:12:58;108.55;;;24.80;;
43088;SDS011;28709;52.030;5.652;2022-12-11T00:15:24;112.00;;;26.30;;
43088;SDS011;28709;52.030;5.652;2022-12-11T00:17:49;98.55;;;24.10;;
43088;SDS011;28709;52.030;5.652;2022-12-11T00:20:15;93.65;;;23.40;;
43088;SDS011;28709;52.030;5.652;2022-12-11T00:22:40;94.47;;;24.48;;
43088;SDS011;28709;52.030;5.652;2022-12-11T00:25:06;107.18;;;28.10;;
43088;SDS011;28709;52.030;5.652;2022-12-11T00:27:32;76.28;;;22.73;;
43088;SDS011;28709;52.030;5.652;2022-12-11T00:29:58;135.88;;;27.10;;
43088;SDS011;28709;52.030;5.652;2022-12-11T00:32:24;118.40;;;26.77;;
43088;SDS011;28709;52.030;5.652;2022-12-11T00:34:49;117.43;;;25.75;;
43088;SDS011;28709;52.030;5.652;2022-12-11T00:37:15;102.90;;;23.88;;
43088;SDS011;28709;52.030;5.652;2022-12-11T00:39:40;109.00;;;24.35;;
43088;SDS011;28709;52.030;5.652;2022-12-11T00:42:06;105.43;;;26.20;;
43088;SDS011;28709;52.030;5.652;2022-12-11T00:44:33;80.75;;;22.85;;
43088;SDS011;28709;52.030;5.652;2022-12-11T00:46:59;97.50;;;26.55;;
43088;SDS011;28709;52.030;5.652;2022-12-11T00:49:24;94.28;;;23.83;;
43088;SDS011;28709;52.030;5.652;2022-12-11T00:51:50;88.07;;;23.98;;
43088;SDS011;28709;52.030;5.652;2022-12-11T00:54:16;118.80;;;26.02;;
43088;SDS011;28709;52.030;5.652;2022-12-11T00:56:41;111.65;;;26.70;;
43088;SDS011;28709;52.030;5.652;2022-12-11T00:59:07;146.65;;;29.98;;
43088;SDS011;28709;52.030;5.652;2022-12-11T01:01:33;109.30;;;25.75;;
43088;SDS011;28709;52.030;5.652;2022-12-11T01:03:58;95.38;;;24.42;;
43088;SDS011;28709;52.030;5.652;2022-12-11T01:06:25;105.95;;;26.05;;
43088;SDS011;28709;52.030;5.652;2022-12-11T01:08:52;138.73;;;27.67;;
43088;SDS011;28709;52.030;5.652;2022-12-11T01:11:39;117.22;;;28.42;;
43088;SDS011;28709;52.030;5.652;2022-12-11T01:14:05;134.07;;;29.27;;
43088;SDS011;28709;52.030;5.652;2022-12-11T01:16:32;111.65;;;27.83;;
43088;SDS011;28709;52.030;5.652;2022-12-11T01:18:57;90.35;;;25.40;;
43088;SDS011;28709;52.030;5.652;2022-12-11T01:21:23;90.07;;;25.35;;
43088;SDS011;28709;52.030;5.652;2022-12-11T01:23:49;89.57;;;24.50;;
43088;SDS011;28709;52.030;5.652;2022-12-11T01:26:15;87.72;;;24.55;;
43088;SDS011;28709;52.030;5.652;2022-12-11T01:28:43;114.35;;;26.52;;
43088;SDS011;28709;52.030;5.652;2022-12-11T01:31:09;93.18;;;25.50;;
43088;SDS011;28709;52.030;5.652;2022-12-11T01:33:36;120.13;;;27.92;;
43088;SDS011;28709;52.030;5.652;2022-12-11T01:36:21;127.32;;;28.17;;
43088;SDS011;28709;52.030;5.652;2022-12-11T01:38:47;110.80;;;28.00;;
43088;SDS011;28709;52.030;5.652;2022-12-11T01:41:14;122.95;;;26.77;;
43088;SDS011;28709;52.030;5.652;2022-12-11T01:46:30;121.38;;;24.05;;
43088;SDS011;28709;52.030;5.652;2022-12-11T01:48:58;106.93;;;27.75;;
43088;SDS011;28709;52.030;5.652;2022-12-11T01:51:25;110.68;;;26.17;;
43088;SDS011;28709;52.030;5.652;2022-12-11T01:53:55;116.05;;;27.23;;
43088;SDS011;28709;52.030;5.652;2022-12-11T01:56:24;127.75;;;26.13;;
43088;SDS011;28709;52.030;5.652;2022-12-11T01:58:52;167.20;;;27.45;;
43088;SDS011;28709;52.030;5.652;2022-12-11T02:01:24;161.52;;;28.08;;
43088;SDS011;28709;52.030;5.652;2022-12-11T02:04:01;114.43;;;25.17;;
43088;SDS011;28709;52.030;5.652;2022-12-11T02:06:31;113.50;;;27.52;;
43088;SDS011;28709;52.030;5.652;2022-12-11T02:09:10;94.20;;;21.42;;
43088;SDS011;28709;52.030;5.652;2022-12-11T02:14:10;96.03;;;23.65;;
43088;SDS011;28709;52.030;5.652;2022-12-11T02:16:49;87.15;;;22.95;;
43088;SDS011;28709;52.030;5.652;2022-12-11T02:22:05;150.32;;;29.92;;
43088;SDS011;28709;52.030;5.652;2022-12-11T02:27:45;117.65;;;25.38;;
43088;SDS011;28709;52.030;5.652;2022-12-11T02:30:14;146.55;;;30.20;;
43088;SDS011;28709;52.030;5.652;2022-12-11T02:35:27;149.10;;;27.38;;
43088;SDS011;28709;52.030;5.652;2022-12-11T02:38:32;107.80;;;28.10;;
43088;SDS011;28709;52.030;5.652;2022-12-11T02:40:55;135.98;;;25.65;;
43088;SDS011;28709;52.030;5.652;2022-12-11T02:43:22;172.90;;;30.40;;
43088;SDS011;28709;52.030;5.652;2022-12-11T02:45:49;165.52;;;28.77;;
43088;SDS011;28709;52.030;5.652;2022-12-11T02:48:17;131.20;;;29.13;;
43088;SDS011;28709;52.030;5.652;2022-12-11T02:50:45;163.73;;;31.98;;
43088;SDS011;28709;52.030;5.652;2022-12-11T02:53:15;105.57;;;27.70;;
43088;SDS011;28709;52.030;5.652;2022-12-11T02:55:43;131.43;;;29.42;;
43088;SDS011;28709;52.030;5.652;2022-12-11T02:58:18;125.38;;;29.38;;
43088;SDS011;28709;52.030;5.652;2022-12-11T03:00:49;139.38;;;30.23;;
43088;SDS011;28709;52.030;5.652;2022-12-11T03:03:15;116.30;;;27.05;;
43088;SDS011;28709;52.030;5.652;2022-12-11T03:05:40;116.65;;;26.15;;
43088;SDS011;28709;52.030;5.652;2022-12-11T03:08:07;103.43;;;24.67;;
43088;SDS011;28709;52.030;5.652;2022-12-11T03:10:32;91.88;;;24.63;;
43088;SDS011;28709;52.030;5.652;2022-12-11T03:12:58;157.93;;;32.72;;
43088;SDS011;28709;52.030;5.652;2022-12-11T03:18:04;102.00;;;24.75;;
43088;SDS011;28709;52.030;5.652;2022-12-11T03:20:40;79.83;;;22.73;;
43088;SDS011;28709;52.030;5.652;2022-12-11T03:25:58;87.53;;;25.08;;
43088;SDS011;28709;52.030;5.652;2022-12-11T03:28:40;90.22;;;24.42;;
43088;SDS011;28709;52.030;5.652;2022-12-11T03:31:12;105.50;;;28.40;;
43088;SDS011;28709;52.030;5.652;2022-12-11T03:34:01;100.03;;;26.42;;
43088;SDS011;28709;52.030;5.652;2022-12-11T03:36:33;81.28;;;21.83;;
43088;SDS011;28709;52.030;5.652;2022-12-11T03:39:06;69.95;;;23.13;;
43088;SDS011;28709;52.030;5.652;2022-12-11T03:41:35;76.93;;;21.95;;
43088;SDS011;28709;52.030;5.652;2022-12-11T03:44:02;74.45;;;23.50;;
43088;SDS011;28709;52.030;5.652;2022-12-11T03:46:29;89.05;;;25.23;;
43088;SDS011;28709;52.030;5.652;2022-12-11T03:48:58;98.10;;;26.27;;
43088;SDS011;28709;52.030;5.652;2022-12-11T03:51:28;94.97;;;24.88;;
43088;SDS011;28709;52.030;5.652;2022-12-11T03:53:55;94.72;;;27.15;;
43088;SDS011;28709;52.030;5.652;2022-12-11T03:56:21;88.18;;;23.98;;
43088;SDS011;28709;52.030;5.652;2022-12-11T03:58:50;81.45;;;24.80;;
43088;SDS011;28709;52.030;5.652;2022-12-11T04:01:16;72.10;;;23.77;;
43088;SDS011;28709;52.030;5.652;2022-12-11T04:03:42;70.75;;;22.02;;
43088;SDS011;28709;52.030;5.652;2022-12-11T04:06:07;70.95;;;24.85;;
43088;SDS011;28709;52.030;5.652;2022-12-11T04:08:33;80.07;;;26.17;;
43088;SDS011;28709;52.030;5.652;2022-12-11T04:10:58;68.95;;;25.33;;
43088;SDS011;28709;52.030;5.652;2022-12-11T04:13:43;68.50;;;25.05;;
43088;SDS011;28709;52.030;5.652;2022-12-11T04:16:09;72.82;;;23.73;;
43088;SDS011;28709;52.030;5.652;2022-12-11T04:18:34;74.90;;;24.23;;
43088;SDS011;28709;52.030;5.652;2022-12-11T04:21:19;73.35;;;23.65;;
43088;SDS011;28709;52.030;5.652;2022-12-11T04:24:03;74.20;;;24.27;;
43088;SDS011;28709;52.030;5.652;2022-12-11T04:26:41;57.70;;;19.95;;
43088;SDS011;28709;52.030;5.652;2022-12-11T04:29:08;60.00;;;21.58;;
43088;SDS011;28709;52.030;5.652;2022-12-11T04:31:33;65.50;;;23.05;;
43088;SDS011;28709;52.030;5.652;2022-12-11T04:33:59;75.65;;;25.40;;
43088;SDS011;28709;52.030;5.652;2022-12-11T04:36:25;60.25;;;21.27;;
43088;SDS011;28709;52.030;5.652;2022-12-11T04:38:50;59.22;;;22.67;;
43088;SDS011;28709;52.030;5.652;2022-12-11T04:41:16;65.57;;;25.10;;
43088;SDS011;28709;52.030;5.652;2022-12-11T04:43:42;59.88;;;21.73;;
43088;SDS011;28709;52.030;5.652;2022-12-11T04:46:12;53.40;;;20.80;;
43088;SDS011;28709;52.030;5.652;2022-12-11T04:48:39;50.33;;;19.10;;
43088;SDS011;28709;52.030;5.652;2022-12-11T04:51:05;48.03;;;19.30;;
43088;SDS011;28709;52.030;5.652;2022-12-11T04:53:32;45.42;;;18.38;;
43088;SDS011;28709;52.030;5.652;2022-12-11T04:55:57;47.60;;;18.73;;
43088;SDS011;28709;52.030;5.652;2022-12-11T04:58:23;55.28;;;20.55;;
43088;SDS011;28709;52.030;5.652;2022-12-11T05:00:50;46.42;;;19.85;;
43088;SDS011;28709;52.030;5.652;2022-12-11T05:03:16;47.38;;;17.60;;
43088;SDS011;28709;52.030;5.652;2022-12-11T05:05:48;39.72;;;18.38;;
43088;SDS011;28709;52.030;5.652;2022-12-11T05:08:15;39.72;;;16.58;;
43088;SDS011;28709;52.030;5.652;2022-12-11T05:10:41;40.83;;;17.23;;
43088;SDS011;28709;52.030;5.652;2022-12-11T05:13:07;43.97;;;19.00;;
43088;SDS011;28709;52.030;5.652;2022-12-11T05:15:33;49.10;;;20.00;;
43088;SDS011;28709;52.030;5.652;2022-12-11T05:17:58;43.58;;;20.73;;
43088;SDS011;28709;52.030;5.652;2022-12-11T05:20:24;40.60;;;18.73;;
43088;SDS011;28709;52.030;5.652;2022-12-11T05:22:49;43.30;;;20.80;;
43088;SDS011;28709;52.030;5.652;2022-12-11T05:25:15;41.03;;;18.30;;
43088;SDS011;28709;52.030;5.652;2022-12-11T05:27:41;45.10;;;19.40;;
43088;SDS011;28709;52.030;5.652;2022-12-11T05:30:06;45.17;;;18.38;;
43088;SDS011;28709;52.030;5.652;2022-12-11T05:32:34;52.28;;;22.38;;
43088;SDS011;28709;52.030;5.652;2022-12-11T05:34:59;48.75;;;19.98;;
43088;SDS011;28709;52.030;5.652;2022-12-11T05:37:25;48.28;;;21.63;;
43088;SDS011;28709;52.030;5.652;2022-12-11T05:39:50;48.63;;;23.05;;
43088;SDS011;28709;52.030;5.652;2022-12-11T05:42:16;50.38;;;23.80;;
43088;SDS011;28709;52.030;5.652;2022-12-11T05:44:42;46.75;;;20.27;;
43088;SDS011;28709;52.030;5.652;2022-12-11T05:47:07;51.13;;;23.02;;
43088;SDS011;28709;52.030;5.652;2022-12-11T05:49:33;51.35;;;22.27;;
43088;SDS011;28709;52.030;5.652;2022-12-11T05:51:58;52.75;;;24.60;;
43088;SDS011;28709;52.030;5.652;2022-12-11T05:54:24;42.83;;;20.67;;
43088;SDS011;28709;52.030;5.652;2022-12-11T05:56:50;51.38;;;21.50;;
43088;SDS011;28709;52.030;5.652;2022-12-11T05:59:15;50.65;;;24.52;;
43088;SDS011;28709;52.030;5.652;2022-12-11T06:01:43;56.53;;;25.08;;
43088;SDS011;28709;52.030;5.652;2022-12-11T06:04:09;51.67;;;23.75;;
43088;SDS011;28709;52.030;5.652;2022-12-11T06:06:36;49.00;;;22.67;;
43088;SDS011;28709;52.030;5.652;2022-12-11T06:09:02;46.85;;;20.35;;
43088;SDS011;28709;52.030;5.652;2022-12-11T06:11:29;40.05;;;19.70;;
43088;SDS011;28709;52.030;5.652;2022-12-11T06:13:56;49.03;;;22.35;;
43088;SDS011;28709;52.030;5.652;2022-12-11T06:16:22;37.47;;;18.13;;
43088;SDS011;28709;52.030;5.652;2022-12-11T06:18:48;40.92;;;20.80;;
43088;SDS011;28709;52.030;5.652;2022-12-11T06:23:49;33.90;;;16.92;;
43088;SDS011;28709;52.030;5.652;2022-12-11T06:26:16;33.80;;;17.58;;
43088;SDS011;28709;52.030;5.652;2022-12-11T06:28:43;31.58;;;16.05;;
43088;SDS011;28709;52.030;5.652;2022-12-11T06:31:09;34.83;;;17.48;;
43088;SDS011;28709;52.030;5.652;2022-12-11T06:33:38;38.97;;;18.67;;
43088;SDS011;28709;52.030;5.652;2022-12-11T06:36:05;36.92;;;18.90;;
43088;SDS011;28709;52.030;5.652;2022-12-11T06:38:35;33.17;;;17.40;;
43088;SDS011;28709;52.030;5.652;2022-12-11T06:41:02;36.30;;;17.50;;
43088;SDS011;28709;52.030;5.652;2022-12-11T06:43:29;32.15;;;15.80;;
43088;SDS011;28709;52.030;5.652;2022-12-11T06:45:55;41.35;;;19.27;;
43088;SDS011;28709;52.030;5.652;2022-12-11T06:48:21;40.20;;;20.75;;
43088;SDS011;28709;52.030;5.652;2022-12-11T06:50:47;38.75;;;20.42;;
43088;SDS011;28709;52.030;5.652;2022-12-11T06:53:13;41.08;;;19.73;;
43088;SDS011;28709;52.030;5.652;2022-12-11T06:55:39;41.45;;;22.60;;
43088;SDS011;28709;52.030;5.652;2022-12-11T06:58:06;34.50;;;17.77;;
43088;SDS011;28709;52.030;5.652;2022-12-11T07:00:33;36.28;;;19.15;;
43088;SDS011;28709;52.030;5.652;2022-12-11T07:02:59;41.67;;;21.45;;
43088;SDS011;28709;52.030;5.652;2022-12-11T07:05:25;42.65;;;22.17;;
43088;SDS011;28709;52.030;5.652;2022-12-11T07:07:52;41.60;;;21.25;;
43088;SDS011;28709;52.030;5.652;2022-12-11T07:10:18;44.28;;;22.38;;
43088;SDS011;28709;52.030;5.652;2022-12-11T07:12:45;40.22;;;21.58;;
43088;SDS011;28709;52.030;5.652;2022-12-11T07:15:10;38.53;;;20.67;;
43088;SDS011;28709;52.030;5.652;2022-12-11T07:17:36;36.65;;;18.55;;
43088;SDS011;28709;52.030;5.652;2022-12-11T07:20:02;37.67;;;19.88;;
43088;SDS011;28709;52.030;5.652;2022-12-11T07:22:28;44.40;;;22.80;;
43088;SDS011;28709;52.030;5.652;2022-12-11T07:24:54;46.08;;;22.98;;
43088;SDS011;28709;52.030;5.652;2022-12-11T07:27:20;38.10;;;21.05;;
43088;SDS011;28709;52.030;5.652;2022-12-11T07:29:45;41.80;;;22.10;;
43088;SDS011;28709;52.030;5.652;2022-12-11T07:32:11;45.35;;;23.02;;
43088;SDS011;28709;52.030;5.652;2022-12-11T07:34:37;37.60;;;19.90;;
43088;SDS011;28709;52.030;5.652;2022-12-11T07:37:02;35.03;;;19.58;;
43088;SDS011;28709;52.030;5.652;2022-12-11T07:39:28;39.03;;;20.52;;
43088;SDS011;28709;52.030;5.652;2022-12-11T07:41:54;34.25;;;17.67;;
43088;SDS011;28709;52.030;5.652;2022-12-11T07:44:19;36.65;;;20.00;;
43088;SDS011;28709;52.030;5.652;2022-12-11T07:46:45;32.25;;;15.60;;
43088;SDS011;28709;52.030;5.652;2022-12-11T07:49:11;37.20;;;17.42;;
43088;SDS011;28709;52.030;5.652;2022-12-11T07:51:37;31.45;;;16.08;;
43088;SDS011;28709;52.030;5.652;2022-12-11T07:54:12;39.08;;;19.10;;
43088;SDS011;28709;52.030;5.652;2022-12-11T07:56:41;35.85;;;17.10;;
43088;SDS011;28709;52.030;5.652;2022-12-11T07:59:07;38.50;;;18.58;;
43088;SDS011;28709;52.030;5.652;2022-12-11T08:01:33;30.55;;;16.98;;
43088;SDS011;28709;52.030;5.652;2022-12-11T08:04:00;26.75;;;15.20;;
43088;SDS011;28709;52.030;5.652;2022-12-11T08:06:31;33.75;;;17.10;;
43088;SDS011;28709;52.030;5.652;2022-12-11T08:08:59;32.08;;;15.45;;
43088;SDS011;28709;52.030;5.652;2022-12-11T08:11:27;27.33;;;14.10;;
43088;SDS011;28709;52.030;5.652;2022-12-11T08:13:53;29.48;;;15.27;;
43088;SDS011;28709;52.030;5.652;2022-12-11T08:16:20;31.25;;;14.65;;
43088;SDS011;28709;52.030;5.652;2022-12-11T08:18:47;32.58;;;15.65;;
43088;SDS011;28709;52.030;5.652;2022-12-11T08:21:14;29.48;;;14.35;;
43088;SDS011;28709;52.030;5.652;2022-12-11T08:23:41;34.90;;;15.75;;
43088;SDS011;28709;52.030;5.652;2022-12-11T08:26:08;31.20;;;16.90;;
43088;SDS011;28709;52.030;5.652;2022-12-11T08:28:37;29.77;;;14.35;;
43088;SDS011;28709;52.030;5.652;2022-12-11T08:31:03;31.35;;;16.38;;
43088;SDS011;28709;52.030;5.652;2022-12-11T08:33:31;31.52;;;15.70;;
43088;SDS011;28709;52.030;5.652;2022-12-11T08:35:56;36.03;;;17.10;;
43088;SDS011;28709;52.030;5.652;2022-12-11T08:38:22;27.30;;;14.35;;
43088;SDS011;28709;52.030;5.652;2022-12-11T08:40:48;28.17;;;14.93;;
43088;SDS011;28709;52.030;5.652;2022-12-11T08:43:13;27.02;;;14.20;;
43088;SDS011;28709;52.030;5.652;2022-12-11T08:45:39;28.40;;;13.15;;
43088;SDS011;28709;52.030;5.652;2022-12-11T08:48:05;28.05;;;13.07;;
43088;SDS011;28709;52.030;5.652;2022-12-11T08:50:30;23.80;;;12.80;;
43088;SDS011;28709;52.030;5.652;2022-12-11T08:52:56;25.35;;;12.90;;
43088;SDS011;28709;52.030;5.652;2022-12-11T08:55:22;27.00;;;13.02;;
43088;SDS011;28709;52.030;5.652;2022-12-11T08:57:48;24.52;;;12.07;;
43088;SDS011;28709;52.030;5.652;2022-12-11T09:00:14;23.67;;;11.93;;
43088;SDS011;28709;52.030;5.652;2022-12-11T09:02:42;27.17;;;12.75;;
43088;SDS011;28709;52.030;5.652;2022-12-11T09:05:08;25.92;;;13.43;;
43088;SDS011;28709;52.030;5.652;2022-12-11T09:07:35;26.67;;;12.93;;
43088;SDS011;28709;52.030;5.652;2022-12-11T09:10:01;22.73;;;11.32;;
43088;SDS011;28709;52.030;5.652;2022-12-11T09:12:31;23.67;;;12.38;;
43088;SDS011;28709;52.030;5.652;2022-12-11T09:14:58;30.67;;;14.98;;
43088;SDS011;28709;52.030;5.652;2022-12-11T09:17:24;23.75;;;12.13;;
43088;SDS011;28709;52.030;5.652;2022-12-11T09:19:50;22.27;;;11.15;;
43088;SDS011;28709;52.030;5.652;2022-12-11T09:22:16;24.35;;;12.88;;
43088;SDS011;28709;52.030;5.652;2022-12-11T09:24:41;21.85;;;10.68;;
43088;SDS011;28709;52.030;5.652;2022-12-11T09:27:07;22.48;;;11.02;;
43088;SDS011;28709;52.030;5.652;2022-12-11T09:29:33;22.40;;;11.32;;
43088;SDS011;28709;52.030;5.652;2022-12-11T09:31:58;26.45;;;13.15;;
43088;SDS011;28709;52.030;5.652;2022-12-11T09:34:24;27.63;;;14.82;;
43088;SDS011;28709;52.030;5.652;2022-12-11T09:36:50;30.00;;;14.85;;
43088;SDS011;28709;52.030;5.652;2022-12-11T09:39:16;26.42;;;11.93;;
43088;SDS011;28709;52.030;5.652;2022-12-11T09:41:54;25.27;;;13.65;;
43088;SDS011;28709;52.030;5.652;2022-12-11T09:46:59;28.20;;;12.90;;
43088;SDS011;28709;52.030;5.652;2022-12-11T09:49:27;23.52;;;12.43;;
43088;SDS011;28709;52.030;5.652;2022-12-11T09:52:07;26.05;;;13.00;;
43088;SDS011;28709;52.030;5.652;2022-12-11T09:54:39;26.88;;;14.13;;
43088;SDS011;28709;52.030;5.652;2022-12-11T09:57:23;27.40;;;13.93;;
43088;SDS011;28709;52.030;5.652;2022-12-11T10:07:35;27.25;;;13.95;;
43088;SDS011;28709;52.030;5.652;2022-12-11T10:16:24;26.48;;;13.93;;
43088;SDS011;28709;52.030;5.652;2022-12-11T10:18:40;31.80;;;14.98;;
43088;SDS011;28709;52.030;5.652;2022-12-11T10:21:06;27.17;;;14.13;;
43088;SDS011;28709;52.030;5.652;2022-12-11T10:23:35;26.42;;;14.02;;
43088;SDS011;28709;52.030;5.652;2022-12-11T10:26:20;29.85;;;14.70;;
43088;SDS011;28709;52.030;5.652;2022-12-11T10:28:47;23.70;;;12.77;;
43088;SDS011;28709;52.030;5.652;2022-12-11T10:31:23;27.98;;;14.23;;
43088;SDS011;28709;52.030;5.652;2022-12-11T10:34:19;32.53;;;16.55;;
43088;SDS011;28709;52.030;5.652;2022-12-11T10:36:48;27.38;;;13.55;;
43088;SDS011;28709;52.030;5.652;2022-12-11T10:39:17;29.23;;;14.07;;
43088;SDS011;28709;52.030;5.652;2022-12-11T10:41:54;24.80;;;13.25;;
43088;SDS011;28709;52.030;5.652;2022-12-11T10:44:21;21.73;;;12.50;;
43088;SDS011;28709;52.030;5.652;2022-12-11T10:47:13;25.05;;;12.95;;
43088;SDS011;28709;52.030;5.652;2022-12-11T10:49:42;24.92;;;12.63;;
43088;SDS011;28709;52.030;5.652;2022-12-11T10:52:19;22.50;;;11.90;;
43088;SDS011;28709;52.030;5.652;2022-12-11T10:54:53;24.90;;;11.90;;
43088;SDS011;28709;52.030;5.652;2022-12-11T10:57:27;20.02;;;11.77;;
43088;SDS011;28709;52.030;5.652;2022-12-11T10:59:59;26.63;;;11.95;;
43088;SDS011;28709;52.030;5.652;2022-12-11T11:02:33;24.90;;;12.43;;
43088;SDS011;28709;52.030;5.652;2022-12-11T11:05:10;26.52;;;12.15;;
43088;SDS011;28709;52.030;5.652;2022-12-11T11:07:42;22.15;;;11.75;;
43088;SDS011;28709;52.030;5.652;2022-12-11T11:12:46;31.40;;;14.75;;
43088;SDS011;28709;52.030;5.652;2022-12-11T11:15:23;30.10;;;14.30;;
43088;SDS011;28709;52.030;5.652;2022-12-11T11:17:55;24.70;;;13.45;;
43088;SDS011;28709;52.030;5.652;2022-12-11T11:20:25;24.77;;;13.13;;
43088;SDS011;28709;52.030;5.652;2022-12-11T11:22:56;26.20;;;14.27;;
43088;SDS011;28709;52.030;5.652;2022-12-11T11:25:26;30.70;;;14.43;;
43088;SDS011;28709;52.030;5.652;2022-12-11T11:28:01;30.40;;;13.68;;
43088;SDS011;28709;52.030;5.652;2022-12-11T11:30:34;28.17;;;15.07;;
43088;SDS011;28709;52.030;5.652;2022-12-11T11:33:13;27.63;;;14.87;;
43088;SDS011;28709;52.030;5.652;2022-12-11T11:35:55;26.35;;;14.38;;
43088;SDS011;28709;52.030;5.652;2022-12-11T11:38:43;29.60;;;13.80;;
43088;SDS011;28709;52.030;5.652;2022-12-11T11:41:24;27.90;;;14.57;;
43088;SDS011;28709;52.030;5.652;2022-12-11T11:43:59;26.13;;;13.02;;
43088;SDS011;28709;52.030;5.652;2022-12-11T11:52:28;28.23;;;13.88;;
43088;SDS011;28709;52.030;5.652;2022-12-11T11:55:02;24.77;;;12.43;;
43088;SDS011;28709;52.030;5.652;2022-12-11T11:57:58;25.70;;;13.95;;
43088;SDS011;28709;52.030;5.652;2022-12-11T12:00:34;26.60;;;14.18;;
43088;SDS011;28709;52.030;5.652;2022-12-11T12:03:10;26.75;;;14.02;;
43088;SDS011;28709;52.030;5.652;2022-12-11T12:13:13;26.77;;;14.50;;
43088;SDS011;28709;52.030;5.652;2022-12-11T12:15:53;27.23;;;14.05;;
43088;SDS011;28709;52.030;5.652;2022-12-11T12:20:54;25.45;;;12.93;;
43088;SDS011;28709;52.030;5.652;2022-12-11T12:25:58;29.08;;;13.30;;
43088;SDS011;28709;52.030;5.652;2022-12-11T12:28:37;25.55;;;13.40;;
43088;SDS011;28709;52.030;5.652;2022-12-11T12:47:38;29.15;;;14.07;;
43088;SDS011;28709;52.030;5.652;2022-12-11T12:50:11;26.90;;;13.27;;
43088;SDS011;28709;52.030;5.652;2022-12-11T12:52:40;28.85;;;13.55;;
43088;SDS011;28709;52.030;5.652;2022-12-11T13:00:35;27.55;;;14.20;;
43088;SDS011;28709;52.030;5.652;2022-12-11T13:03:24;26.70;;;13.23;;
43088;SDS011;28709;52.030;5.652;2022-12-11T13:06:01;28.67;;;14.43;;
43088;SDS011;28709;52.030;5.652;2022-12-11T13:08:30;27.17;;;12.35;;
43088;SDS011;28709;52.030;5.652;2022-12-11T13:11:12;29.42;;;14.48;;
43088;SDS011;28709;52.030;5.652;2022-12-11T13:13:42;29.38;;;15.20;;
43088;SDS011;28709;52.030;5.652;2022-12-11T13:16:35;27.05;;;15.02;;
43088;SDS011;28709;52.030;5.652;2022-12-11T13:19:14;35.05;;;16.58;;
43088;SDS011;28709;52.030;5.652;2022-12-11T13:22:03;29.55;;;14.35;;
43088;SDS011;28709;52.030;5.652;2022-12-11T13:24:43;28.30;;;14.80;;
43088;SDS011;28709;52.030;5.652;2022-12-11T13:27:24;28.42;;;14.15;;
43088;SDS011;28709;52.030;5.652;2022-12-11T13:30:06;28.25;;;13.50;;
43088;SDS011;28709;52.030;5.652;2022-12-11T13:32:53;26.65;;;13.43;;
43088;SDS011;28709;52.030;5.652;2022-12-11T13:35:32;32.50;;;14.65;;
43088;SDS011;28709;52.030;5.652;2022-12-11T13:38:03;34.03;;;16.67;;
43088;SDS011;28709;52.030;5.652;2022-12-11T13:40:35;26.63;;;14.77;;
43088;SDS011;28709;52.030;5.652;2022-12-11T13:43:07;27.23;;;14.50;;
43088;SDS011;28709;52.030;5.652;2022-12-11T13:48:20;28.42;;;14.18;;
43088;SDS011;28709;52.030;5.652;2022-12-11T13:50:57;27.80;;;15.57;;
43088;SDS011;28709;52.030;5.652;2022-12-11T13:53:24;31.88;;;15.75;;
43088;SDS011;28709;52.030;5.652;2022-12-11T13:55:56;31.30;;;14.07;;
43088;SDS011;28709;52.030;5.652;2022-12-11T13:58:23;36.10;;;15.57;;
43088;SDS011;28709;52.030;5.652;2022-12-11T14:03:37;32.60;;;15.48;;
43088;SDS011;28709;52.030;5.652;2022-12-11T14:06:04;32.13;;;16.13;;
43088;SDS011;28709;52.030;5.652;2022-12-11T14:08:35;27.73;;;13.50;;
43088;SDS011;28709;52.030;5.652;2022-12-11T14:11:03;28.40;;;14.15;;
43088;SDS011;28709;52.030;5.652;2022-12-11T14:13:33;31.92;;;14.52;;
43088;SDS011;28709;52.030;5.652;2022-12-11T14:16:01;29.45;;;14.18;;
43088;SDS011;28709;52.030;5.652;2022-12-11T14:18:29;26.55;;;12.55;;
43088;SDS011;28709;52.030;5.652;2022-12-11T14:20:58;26.20;;;12.73;;
43088;SDS011;28709;52.030;5.652;2022-12-11T14:23:32;30.98;;;15.05;;
43088;SDS011;28709;52.030;5.652;2022-12-11T14:26:10;31.55;;;15.57;;
43088;SDS011;28709;52.030;5.652;2022-12-11T14:28:42;29.65;;;14.18;;
43088;SDS011;28709;52.030;5.652;2022-12-11T14:31:08;31.00;;;14.85;;
43088;SDS011;28709;52.030;5.652;2022-12-11T14:33:39;26.23;;;14.15;;
43088;SDS011;28709;52.030;5.652;2022-12-11T14:36:15;30.17;;;13.48;;
43088;SDS011;28709;52.030;5.652;2022-12-11T14:38:43;28.70;;;15.13;;
43088;SDS011;28709;52.030;5.652;2022-12-11T14:41:16;29.42;;;14.57;;
43088;SDS011;28709;52.030;5.652;2022-12-11T14:46:21;30.65;;;15.25;;
43088;SDS011;28709;52.030;5.652;2022-12-11T14:49:01;26.25;;;13.60;;
43088;SDS011;28709;52.030;5.652;2022-12-11T14:51:33;25.60;;;12.73;;
43088;SDS011;28709;52.030;5.652;2022-12-11T14:54:03;27.27;;;12.63;;
43088;SDS011;28709;52.030;5.652;2022-12-11T14:56:31;27.25;;;13.73;;
43088;SDS011;28709;52.030;5.652;2022-12-11T14:59:04;30.90;;;13.40;;
43088;SDS011;28709;52.030;5.652;2022-12-11T15:01:34;26.50;;;13.20;;
43088;SDS011;28709;52.030;5.652;2022-12-11T15:04:21;26.65;;;13.63;;
43088;SDS011;28709;52.030;5.652;2022-12-11T15:06:51;31.65;;;15.38;;
43088;SDS011;28709;52.030;5.652;2022-12-11T15:11:55;27.52;;;14.23;;
43088;SDS011;28709;52.030;5.652;2022-12-11T15:14:23;35.40;;;15.75;;
43088;SDS011;28709;52.030;5.652;2022-12-11T15:16:50;30.38;;;14.90;;
43088;SDS011;28709;52.030;5.652;2022-12-11T15:19:31;33.65;;;15.30;;
43088;SDS011;28709;52.030;5.652;2022-12-11T15:22:03;25.98;;;13.98;;
43088;SDS011;28709;52.030;5.652;2022-12-11T15:27:04;33.03;;;15.57;;
43088;SDS011;28709;52.030;5.652;2022-12-11T15:37:29;34.22;;;14.48;;
43088;SDS011;28709;52.030;5.652;2022-12-11T15:39:56;29.77;;;14.45;;
43088;SDS011;28709;52.030;5.652;2022-12-11T15:42:24;33.80;;;15.25;;
43088;SDS011;28709;52.030;5.652;2022-12-11T15:44:58;29.40;;;15.20;;
43088;SDS011;28709;52.030;5.652;2022-12-11T15:47:25;38.83;;;16.85;;
43088;SDS011;28709;52.030;5.652;2022-12-11T15:49:54;35.20;;;16.10;;
43088;SDS011;28709;52.030;5.652;2022-12-11T15:52:31;34.40;;;15.55;;
43088;SDS011;28709;52.030;5.652;2022-12-11T15:54:58;26.98;;;12.98;;
43088;SDS011;28709;52.030;5.652;2022-12-11T15:57:24;25.10;;;13.40;;
43088;SDS011;28709;52.030;5.652;2022-12-11T15:59:50;31.75;;;14.60;;
43088;SDS011;28709;52.030;5.652;2022-12-11T16:02:18;33.47;;;15.40;;
43088;SDS011;28709;52.030;5.652;2022-12-11T16:04:44;28.73;;;14.00;;
43088;SDS011;28709;52.030;5.652;2022-12-11T16:07:12;30.83;;;14.77;;
43088;SDS011;28709;52.030;5.652;2022-12-11T16:09:43;29.80;;;14.98;;
43088;SDS011;28709;52.030;5.652;2022-12-11T16:12:09;33.55;;;14.48;;
43088;SDS011;28709;52.030;5.652;2022-12-11T16:14:35;26.98;;;13.32;;